createdAt,value
2022-08-07T00:02:40.416Z,6.00
2022-08-07T00:05:08.930Z,6.47
2022-08-07T00:07:41.629Z,6.10
2022-08-07T00:10:25.951Z,7.13
2022-08-07T00:13:24.110Z,6.60
2022-08-07T00:15:55.452Z,5.87
2022-08-07T00:18:29.010Z,5.47
2022-08-07T00:21:03.495Z,5.80
2022-08-07T00:23:40.651Z,5.47
2022-08-07T00:26:18.930Z,6.17
2022-08-07T00:29:03.985Z,5.60
2022-08-07T00:31:41.489Z,5.53
2022-08-07T00:36:46.460Z,6.00
2022-08-07T00:39:20.652Z,5.60
2022-08-07T00:42:02.319Z,5.73
2022-08-07T00:44:38.776Z,5.73
2022-08-07T00:50:19.826Z,4.97
2022-08-07T00:52:56.984Z,5.33
2022-08-07T00:56:00.562Z,5.60
2022-08-07T00:58:23.789Z,5.53
2022-08-07T01:00:55.791Z,5.20
2022-08-07T01:03:56.584Z,5.70
2022-08-07T01:06:19.219Z,5.07
2022-08-07T01:08:56.276Z,5.50
2022-08-07T01:12:11.065Z,5.03
2022-08-07T01:14:28.407Z,4.93
2022-08-07T01:17:00.605Z,5.43
2022-08-07T01:19:38.466Z,5.18
2022-08-07T01:22:22.617Z,5.23
2022-08-07T01:25:02.410Z,5.20
2022-08-07T01:27:52.874Z,4.80
2022-08-07T01:30:27.055Z,4.73
2022-08-07T01:32:59.368Z,4.37
2022-08-07T01:35:53.558Z,5.20
2022-08-07T01:38:29.159Z,4.90
2022-08-07T01:41:03.299Z,5.63
2022-08-07T01:43:38.565Z,5.50
2022-08-07T01:46:12.232Z,4.85
2022-08-07T01:48:46.726Z,4.10
2022-08-07T01:52:01.273Z,6.07
2022-08-07T01:54:32.978Z,5.80
2022-08-07T01:57:24.434Z,4.67
2022-08-07T02:00:02.244Z,4.87
2022-08-07T02:03:19.198Z,4.53
2022-08-07T02:05:43.288Z,4.77
2022-08-07T02:08:27.810Z,5.00
2022-08-07T02:11:00.939Z,4.97
2022-08-07T02:13:56.490Z,4.65
2022-08-07T02:16:33.204Z,4.63
2022-08-07T02:20:07.155Z,4.60
2022-08-07T02:22:01.727Z,4.43
2022-08-07T02:24:34.453Z,4.60
2022-08-07T02:27:06.886Z,5.00
2022-08-07T02:29:43.446Z,4.30
2022-08-07T02:32:23.558Z,5.33
2022-08-07T02:35:00.744Z,4.73
2022-08-07T02:37:36.188Z,4.63
2022-08-07T02:40:30.646Z,5.20
2022-08-07T02:43:08.215Z,5.00
2022-08-07T02:46:00.773Z,4.60
2022-08-07T02:48:34.525Z,4.63
2022-08-07T02:51:28.851Z,4.47
2022-08-07T02:54:03.600Z,4.97
2022-08-07T02:56:38.546Z,4.73
2022-08-07T02:59:14.805Z,5.18
2022-08-07T03:01:47.269Z,4.32
2022-08-07T03:04:25.511Z,4.67
2022-08-07T03:06:59.821Z,4.97
2022-08-07T03:09:43.192Z,5.57
2022-08-07T03:12:22.651Z,4.93
2022-08-07T03:15:07.742Z,5.27
2022-08-07T03:17:53.438Z,4.87
2022-08-07T03:20:26.152Z,5.18
2022-08-07T03:22:59.106Z,4.60
2022-08-07T03:25:40.153Z,4.90
2022-08-07T03:28:37.471Z,5.00
2022-08-07T03:31:18.418Z,4.97
2022-08-07T03:33:53.210Z,4.77
2022-08-07T03:36:27.233Z,4.60
2022-08-07T03:39:07.312Z,4.60
2022-08-07T03:41:42.059Z,4.57
2022-08-07T03:44:21.780Z,4.63
2022-08-07T03:47:13.345Z,4.45
2022-08-07T03:49:52.053Z,4.67
2022-08-07T03:52:27.554Z,4.30
2022-08-07T03:55:07.261Z,4.57
2022-08-07T03:58:35.251Z,4.30
2022-08-07T04:00:35.490Z,4.83
2022-08-07T04:03:10.025Z,4.27
2022-08-07T04:05:42.460Z,4.47
2022-08-07T04:08:18.635Z,3.95
2022-08-07T04:12:21.206Z,4.75
2022-08-07T04:14:10.033Z,4.10
2022-08-07T04:16:38.313Z,4.20
2022-08-07T04:19:15.715Z,4.93
2022-08-07T04:21:58.782Z,4.57
2022-08-07T04:24:38.755Z,4.23
2022-08-07T04:27:20.800Z,4.30
2022-08-07T04:30:01.508Z,4.93
2022-08-07T04:32:35.274Z,4.53
2022-08-07T04:35:11.195Z,4.43
2022-08-07T04:38:03.181Z,4.18
2022-08-07T04:40:35.189Z,3.73
2022-08-07T04:43:06.567Z,4.37
2022-08-07T04:46:06.677Z,4.23
2022-08-07T04:49:17.838Z,4.23
2022-08-07T04:52:18.365Z,3.90
2022-08-07T04:55:01.600Z,4.20
2022-08-07T04:58:14.296Z,4.20
2022-08-07T05:01:13.883Z,4.40
2022-08-07T05:04:06.942Z,3.83
2022-08-07T05:06:51.616Z,4.37
2022-08-07T05:09:45.518Z,4.10
2022-08-07T05:12:27.181Z,4.20
2022-08-07T05:15:21.540Z,3.87
2022-08-07T05:18:08.591Z,4.20
2022-08-07T05:20:48.059Z,3.92
2022-08-07T05:23:30.188Z,4.07
2022-08-07T05:26:13.742Z,4.10
2022-08-07T05:28:53.001Z,3.93
2022-08-07T05:31:34.573Z,3.63
2022-08-07T05:34:11.003Z,4.60
2022-08-07T05:36:48.869Z,4.95
2022-08-07T05:40:13.645Z,4.10
2022-08-07T05:42:14.999Z,3.83
2022-08-07T05:45:26.185Z,4.30
2022-08-07T05:48:02.643Z,3.90
2022-08-07T05:50:35.373Z,4.07
2022-08-07T05:54:09.385Z,4.63
2022-08-07T05:56:05.830Z,3.93
2022-08-07T05:58:39.188Z,4.28
2022-08-07T06:01:12.937Z,5.13
2022-08-07T06:03:56.627Z,4.23
2022-08-07T06:06:32.897Z,4.72
2022-08-07T06:09:05.273Z,4.97
2022-08-07T06:11:37.774Z,5.10
2022-08-07T06:14:12.047Z,5.57
2022-08-07T06:16:50.356Z,4.80
2022-08-07T06:19:57.816Z,5.00
2022-08-07T06:22:23.295Z,4.00
2022-08-07T06:25:01.262Z,4.60
2022-08-07T06:27:59.597Z,3.70
2022-08-07T06:30:35.559Z,3.10
2022-08-07T06:33:10.008Z,3.80
2022-08-07T06:36:11.755Z,3.43
2022-08-07T06:38:58.428Z,3.30
2022-08-07T06:42:00.571Z,3.83
2022-08-07T06:44:31.119Z,3.20
2022-08-07T06:47:10.026Z,2.90
2022-08-07T06:49:51.936Z,3.40
2022-08-07T06:52:35.945Z,3.03
2022-08-07T06:55:32.012Z,2.72
2022-08-07T06:58:16.703Z,3.10
2022-08-07T07:00:53.360Z,2.63
2022-08-07T07:03:34.805Z,3.30
2022-08-07T07:06:23.944Z,2.50
2022-08-07T07:09:19.429Z,2.90
2022-08-07T07:12:24.675Z,3.08
2022-08-07T07:15:35.796Z,2.80
2022-08-07T07:18:33.043Z,2.55
2022-08-07T07:21:19.505Z,2.70
2022-08-07T07:24:08.908Z,2.65
2022-08-07T07:26:52.030Z,2.85
2022-08-07T07:29:39.462Z,2.85
2022-08-07T07:32:21.727Z,2.67
2022-08-07T07:34:57.836Z,3.13
2022-08-07T07:37:49.701Z,2.78
2022-08-07T07:40:26.305Z,2.75
2022-08-07T07:43:11.641Z,3.05
2022-08-07T07:46:37.766Z,2.85
2022-08-07T07:48:45.524Z,2.70
2022-08-07T07:51:19.818Z,2.92
2022-08-07T07:53:52.917Z,3.03
2022-08-07T07:56:30.173Z,3.13
2022-08-07T07:59:05.897Z,2.60
2022-08-07T08:02:02.430Z,3.08
2022-08-07T08:04:36.888Z,2.88
2022-08-07T08:07:10.363Z,3.28
2022-08-07T08:09:51.649Z,2.92
2022-08-07T08:12:51.562Z,2.90
2022-08-07T08:15:15.602Z,3.10
2022-08-07T08:18:36.878Z,3.45
2022-08-07T08:20:40.578Z,2.70
2022-08-07T08:23:35.611Z,2.83
2022-08-07T08:26:26.715Z,3.10
2022-08-07T08:29:00.982Z,2.92
2022-08-07T08:32:17.113Z,3.25
2022-08-07T08:34:30.045Z,3.33
2022-08-07T08:37:04.249Z,2.60
2022-08-07T08:39:55.008Z,3.22
2022-08-07T08:42:40.454Z,2.90
2022-08-07T08:45:19.608Z,2.80
2022-08-07T08:48:42.670Z,3.13
2022-08-07T08:51:49.268Z,3.03
2022-08-07T08:54:25.035Z,3.22
2022-08-07T08:57:00.109Z,2.90
2022-08-07T08:59:50.490Z,3.05
2022-08-07T09:02:52.510Z,3.10
2022-08-07T09:05:42.192Z,2.88
2022-08-07T09:08:49.133Z,3.15
2022-08-07T09:11:43.715Z,2.92
2022-08-07T09:14:34.346Z,3.33
2022-08-07T09:17:22.458Z,3.08
2022-08-07T09:24:33.193Z,3.33
2022-08-07T09:26:02.740Z,3.50
2022-08-07T09:30:01.263Z,3.22
2022-08-07T09:32:02.102Z,3.58
2022-08-07T09:34:53.843Z,3.50
2022-08-07T09:37:48.220Z,3.22
2022-08-07T09:40:50.202Z,3.72
2022-08-07T09:44:05.498Z,3.13
2022-08-07T09:47:52.711Z,3.05
2022-08-07T09:50:01.877Z,3.30
2022-08-07T09:52:44.880Z,3.30
2022-08-07T09:56:03.720Z,2.45
2022-08-07T09:58:42.408Z,3.22
2022-08-07T10:01:53.820Z,2.97
2022-08-07T10:04:52.926Z,3.47
2022-08-07T10:07:55.377Z,2.90
2022-08-07T10:11:00.265Z,2.88
2022-08-07T10:14:00.457Z,3.13
2022-08-07T10:17:14.057Z,2.97
2022-08-07T10:20:12.895Z,2.58
2022-08-07T10:23:10.571Z,2.67
2022-08-07T10:26:01.461Z,2.88
2022-08-07T10:28:56.543Z,3.58
2022-08-07T10:31:53.368Z,3.00
2022-08-07T10:34:45.227Z,3.00
2022-08-07T10:38:00.410Z,3.05
2022-08-07T10:41:09.300Z,2.92
2022-08-07T10:44:07.660Z,3.63
2022-08-07T10:46:46.537Z,2.53
2022-08-07T10:49:49.857Z,2.78
2022-08-07T10:52:33.901Z,2.78
2022-08-07T10:55:26.610Z,3.17
2022-08-07T10:58:17.813Z,3.30
2022-08-07T11:01:35.253Z,3.00
2022-08-07T11:04:32.043Z,2.97
2022-08-07T11:07:56.274Z,2.90
2022-08-07T11:10:18.969Z,2.63
2022-08-07T11:13:02.560Z,2.88
2022-08-07T11:15:40.334Z,3.30
2022-08-07T11:18:21.445Z,3.17
2022-08-07T11:21:10.312Z,2.80
2022-08-07T11:24:03.980Z,2.72
2022-08-07T11:26:57.259Z,2.50
2022-08-07T11:29:53.467Z,2.55
2022-08-07T11:32:52.770Z,2.65
2022-08-07T11:35:59.062Z,2.40
2022-08-07T11:41:18.218Z,2.53
2022-08-07T11:44:18.563Z,2.78
2022-08-07T11:47:38.938Z,2.70
2022-08-07T11:50:57.814Z,2.72
2022-08-07T11:54:09.773Z,2.40
2022-08-07T11:57:03.253Z,2.80
2022-08-07T12:00:11.185Z,3.00
2022-08-07T12:02:54.426Z,2.38
2022-08-07T12:05:58.323Z,2.60
2022-08-07T12:08:50.021Z,2.22
2022-08-07T12:11:32.571Z,2.20
2022-08-07T12:14:19.190Z,2.22
2022-08-07T12:16:56.000Z,2.55
2022-08-07T12:20:02.652Z,2.38
2022-08-07T12:22:56.160Z,2.20
2022-08-07T12:26:05.560Z,2.15
2022-08-07T12:28:53.946Z,2.40
2022-08-07T12:31:53.327Z,2.20
2022-08-07T12:34:30.102Z,2.55
2022-08-07T12:37:08.180Z,2.30
2022-08-07T12:39:50.490Z,2.40
2022-08-07T12:42:31.907Z,2.58
2022-08-07T12:45:11.837Z,2.60
2022-08-07T12:47:55.389Z,2.58
2022-08-07T12:50:40.042Z,2.20
2022-08-07T12:54:24.107Z,2.20
2022-08-07T12:56:32.906Z,2.90
2022-08-07T12:59:08.418Z,2.20
2022-08-07T13:02:10.784Z,2.22
2022-08-07T13:05:06.425Z,2.20
2022-08-07T13:08:18.784Z,2.63
2022-08-07T13:11:01.750Z,2.33
2022-08-07T13:13:50.162Z,2.35
2022-08-07T13:16:50.852Z,2.65
2022-08-07T13:19:51.612Z,2.67
2022-08-07T13:22:31.044Z,2.40
2022-08-07T13:25:10.322Z,2.90
2022-08-07T13:28:12.394Z,2.08
2022-08-07T13:31:01.606Z,2.55
2022-08-07T13:34:34.159Z,2.35
2022-08-07T13:36:54.351Z,2.45
2022-08-07T13:40:33.353Z,2.20
2022-08-07T13:42:24.860Z,2.35
2022-08-07T13:46:06.417Z,2.22
2022-08-07T13:48:06.304Z,2.42
2022-08-07T13:50:55.532Z,2.60
2022-08-07T13:54:00.340Z,2.45
2022-08-07T13:56:41.298Z,2.72
2022-08-07T13:59:31.325Z,2.42
2022-08-07T14:02:08.640Z,2.35
2022-08-07T14:04:54.712Z,2.28
2022-08-07T14:07:30.963Z,2.10
2022-08-07T14:10:21.707Z,2.17
2022-08-07T14:13:03.805Z,2.00
2022-08-07T14:15:51.934Z,2.40
2022-08-07T14:18:39.600Z,2.38
2022-08-07T14:22:04.199Z,2.05
2022-08-07T14:24:33.739Z,2.35
2022-08-07T14:27:16.074Z,1.70
2022-08-07T14:30:11.328Z,2.17
2022-08-07T14:33:04.985Z,2.13
2022-08-07T14:35:44.866Z,2.28
2022-08-07T14:38:30.694Z,2.30
2022-08-07T14:41:06.182Z,2.22
2022-08-07T14:43:57.612Z,2.15
2022-08-07T14:46:35.651Z,2.05
2022-08-07T14:52:03.882Z,2.40
2022-08-07T14:54:43.370Z,2.30
2022-08-07T15:00:09.227Z,2.42
2022-08-07T15:02:44.488Z,2.50
2022-08-07T15:05:30.249Z,2.33
2022-08-07T15:08:08.938Z,2.50
2022-08-07T15:10:58.535Z,1.95
2022-08-07T15:13:35.826Z,2.15
2022-08-07T15:16:14.675Z,2.20
2022-08-07T15:18:55.059Z,2.45
2022-08-07T15:21:43.888Z,1.95
2022-08-07T15:27:25.830Z,2.25
2022-08-07T15:30:16.202Z,2.30
2022-08-07T15:32:51.087Z,2.00
2022-08-07T15:36:00.635Z,2.30
2022-08-07T15:38:33.088Z,1.90
2022-08-07T15:42:44.078Z,2.13
2022-08-07T15:44:21.151Z,2.20
2022-08-07T15:47:08.637Z,2.58
2022-08-07T15:52:38.556Z,2.47
2022-08-07T15:55:14.363Z,1.95
2022-08-07T15:57:52.379Z,2.30
2022-08-07T16:00:36.876Z,2.30
2022-08-07T16:03:46.134Z,2.42
2022-08-07T16:06:15.938Z,2.20
2022-08-07T16:08:47.997Z,2.15
2022-08-07T16:11:39.899Z,2.38
2022-08-07T16:14:19.407Z,2.17
2022-08-07T16:18:02.994Z,2.30
2022-08-07T16:20:34.121Z,2.45
2022-08-07T16:23:54.135Z,2.30
2022-08-07T16:26:59.519Z,2.20
2022-08-07T16:30:11.264Z,2.35
2022-08-07T16:34:01.436Z,2.65
2022-08-07T16:36:18.268Z,2.58
2022-08-07T16:39:21.042Z,2.10
2022-08-07T16:42:27.532Z,2.70
2022-08-07T16:46:47.224Z,2.20
2022-08-07T16:48:15.374Z,2.20
2022-08-07T16:52:01.721Z,2.00
2022-08-07T16:54:55.503Z,2.83
2022-08-07T16:58:02.622Z,2.60
2022-08-07T17:00:49.994Z,2.55
2022-08-07T17:03:58.093Z,3.03
2022-08-07T17:06:42.613Z,2.72
2022-08-07T17:10:05.441Z,2.78
2022-08-07T17:12:46.429Z,2.67
2022-08-07T17:15:44.725Z,2.50
2022-08-07T17:18:32.015Z,2.40
2022-08-07T17:21:18.822Z,2.72
2022-08-07T17:24:03.761Z,2.35
2022-08-07T17:26:50.142Z,2.40
2022-08-07T17:30:14.764Z,2.22
2022-08-07T17:33:39.057Z,2.38
2022-08-07T17:36:20.358Z,2.60
2022-08-07T17:39:10.552Z,2.42
2022-08-07T17:42:07.019Z,2.47
2022-08-07T17:44:51.660Z,2.70
2022-08-07T17:47:37.978Z,2.60
2022-08-07T17:50:19.423Z,2.13
2022-08-07T17:52:59.747Z,2.83
2022-08-07T17:56:00.224Z,2.38
2022-08-07T17:58:46.301Z,2.40
2022-08-07T18:01:37.377Z,2.58
2022-08-07T18:04:43.103Z,3.33
2022-08-07T18:07:34.270Z,2.00
2022-08-07T18:10:32.239Z,2.30
2022-08-07T18:13:20.551Z,2.45
2022-08-07T18:15:58.677Z,2.33
2022-08-07T18:21:04.066Z,2.17
2022-08-07T18:21:59.983Z,2.03
2022-08-07T18:24:46.991Z,2.80
2022-08-07T18:27:54.032Z,2.53
2022-08-07T18:30:48.250Z,2.20
2022-08-07T18:33:54.808Z,1.90
2022-08-07T18:36:55.029Z,2.45
2022-08-07T18:40:08.172Z,2.10
2022-08-07T18:42:49.091Z,2.20
2022-08-07T18:45:43.006Z,2.20
2022-08-07T18:50:19.572Z,2.10
2022-08-07T18:52:37.466Z,2.15
2022-08-07T18:55:42.584Z,2.00
2022-08-07T18:58:30.195Z,2.20
2022-08-07T19:02:18.611Z,2.15
2022-08-07T19:05:09.937Z,1.88
2022-08-07T19:07:58.858Z,2.20
2022-08-07T19:10:51.572Z,3.27
2022-08-07T19:13:49.948Z,3.70
2022-08-07T19:17:01.209Z,3.90
2022-08-07T19:20:29.148Z,2.40
2022-08-07T19:23:18.326Z,3.10
2022-08-07T19:26:24.082Z,3.27
2022-08-07T19:30:57.161Z,3.07
2022-08-07T19:32:08.174Z,3.83
2022-08-07T19:34:47.683Z,3.50
2022-08-07T19:37:23.044Z,3.93
2022-08-07T19:40:04.808Z,5.20
2022-08-07T19:42:43.126Z,3.03
2022-08-07T19:46:04.977Z,2.93
2022-08-07T19:48:18.336Z,2.60
2022-08-07T19:50:53.578Z,2.40
2022-08-07T19:54:33.817Z,2.67
2022-08-07T19:58:03.929Z,2.37
2022-08-07T19:59:21.091Z,3.00
2022-08-07T20:01:58.056Z,2.80
2022-08-07T20:04:37.585Z,2.90
2022-08-07T20:07:13.974Z,2.67
2022-08-07T20:10:36.868Z,2.95
2022-08-07T20:12:53.354Z,2.90
2022-08-07T20:15:32.983Z,3.33
2022-08-07T20:18:14.713Z,3.10
2022-08-07T20:20:56.292Z,3.87
2022-08-07T20:23:41.705Z,3.90
2022-08-07T20:26:29.543Z,4.33
2022-08-07T20:29:10.625Z,4.20
2022-08-07T20:31:49.321Z,3.13
2022-08-07T20:34:49.237Z,3.03
2022-08-07T20:37:29.938Z,3.15
2022-08-07T20:40:33.368Z,3.57
2022-08-07T20:43:01.028Z,3.30
2022-08-07T20:46:28.787Z,3.17
2022-08-07T20:48:30.767Z,2.67
2022-08-07T20:51:09.578Z,2.97
2022-08-07T20:56:41.915Z,2.80
2022-08-07T21:00:04.714Z,4.03
2022-08-07T21:02:38.266Z,2.93
2022-08-07T21:05:16.287Z,3.10
2022-08-07T21:07:52.122Z,2.90
2022-08-07T21:10:31.651Z,3.00
2022-08-07T21:13:10.261Z,3.03
2022-08-07T21:15:58.213Z,3.50
2022-08-07T21:18:35.918Z,3.23
2022-08-07T21:21:13.226Z,3.10
2022-08-07T21:24:04.933Z,3.47
2022-08-07T21:26:58.713Z,2.87
2022-08-07T21:29:43.457Z,3.23
2022-08-07T21:32:50.849Z,3.37
2022-08-07T21:35:34.506Z,3.07
2022-08-07T21:38:28.119Z,3.60
2022-08-07T21:41:09.955Z,3.63
2022-08-07T21:43:56.155Z,4.07
2022-08-07T21:46:46.082Z,4.35
2022-08-07T21:49:17.711Z,4.07
2022-08-07T21:52:05.748Z,3.90
2022-08-07T21:54:48.303Z,3.40
2022-08-07T21:57:44.584Z,3.20
2022-08-07T22:00:22.633Z,3.50
2022-08-07T22:03:16.686Z,3.50
2022-08-07T22:05:55.151Z,3.30
2022-08-07T22:08:37.545Z,3.97
2022-08-07T22:11:11.012Z,3.47
2022-08-07T22:13:52.966Z,4.27
2022-08-07T22:16:41.890Z,3.73
2022-08-07T22:19:29.249Z,3.80
2022-08-07T22:22:21.405Z,3.60
2022-08-07T22:25:02.972Z,3.60
2022-08-07T22:28:20.238Z,3.70
2022-08-07T22:30:54.669Z,4.03
2022-08-07T22:33:56.636Z,4.20
2022-08-07T22:36:48.459Z,3.57
2022-08-07T22:39:52.390Z,3.13
2022-08-07T22:42:29.565Z,3.57
2022-08-07T22:45:10.978Z,3.63
2022-08-07T22:48:55.359Z,3.93
2022-08-07T22:51:15.876Z,4.03
2022-08-07T22:54:30.197Z,3.53
2022-08-07T22:57:37.207Z,4.00
2022-08-07T23:00:17.857Z,3.40
2022-08-07T23:03:11.066Z,3.67
2022-08-07T23:06:15.466Z,4.33
2022-08-07T23:10:00.897Z,3.70
2022-08-07T23:12:34.617Z,4.07
2022-08-07T23:16:04.394Z,3.87
2022-08-07T23:18:35.053Z,4.63
2022-08-07T23:21:30.200Z,3.73
2022-08-07T23:24:27.960Z,4.23
2022-08-07T23:27:17.601Z,3.93
2022-08-07T23:30:36.048Z,5.20
2022-08-07T23:34:34.503Z,4.40
2022-08-07T23:36:39.721Z,7.73
2022-08-07T23:39:22.210Z,4.30
2022-08-07T23:42:23.967Z,3.80
2022-08-07T23:45:07.282Z,5.47
2022-08-07T23:47:47.942Z,4.83
2022-08-07T23:50:56.938Z,3.60
2022-08-07T23:53:53.901Z,5.40
2022-08-07T23:56:41.743Z,5.40
